Airfield :







YOU CAN JOIN US ON...

 
LOGIN :

Register | Disclaimer

   EN    FR    IT 

 









Legend :    VFR   Marginal VFR   IFR   Intensive IFR   Very Intensive IFR
Visi :
Ceiling :
>= 8 km
>= 3000ft
5 to 8 km
1000 to 3000 ft
1500m to 5 km
500 to 1000 ft
800 to 1500m
200 to 500 ft
< 800m
< 200 ft
Symbols :   Thunderstorms  Fog  Heavy snow  Heavy precipitations  Wind > 20 kt






- Airport Elevation : 72 ft
- IATA code : YDF


CYDF - Deer Lake

CURRENT METAR :
  • 270500Z 30003KT 270V330 15SM -SN OVC028 M06/M09 A3021 RMK SC8 SLP233

EXPIRED METARs :
  • 270400Z 27004KT 230V330 6SM -SN OVC020 M06/M09 A3020 RMK SC8 SLP229
  • 270300Z 28003KT 250V320 6SM -SN OVC032 M05/M08 A3018 RMK SC8 SLP222

TAF TAF CYDF
Valid from the 27 at 02:00 until the 27 at 14:00 UTC


270138Z 2702/2714 30005KT P6SM OVC025
TEMPO 2702/2706 P6SM -SN OVC015
FM270600 VRB03KT P6SM BKN020
TEMPO 2706/2714 SCT020
BECMG 2710/2712 04008KT RMK NXT FCST BY 270800Z



MET'MAP, your aeronautical weather chart ! - Copyright ORBIFLY December 2007 - Disclaimer

ORBIFLY MET'MAP TEAM :

Programming & Development : Alexandra Zaïnal
Concept & original design : Baudouin d'Aumeries
Assistance for programming : Marc-Olivier Méhu
Technical & hardware support : Manuel Goepfert

Contact : metmap@orbifly.com




SOURCES & CREDITS :

   NOAA